• Join FlightAware (Why Join?)
  • Login
  • US Flag 
02:23PM EDT


 

Airport Tracker/Info


-or-


 

Live Flight TrackerFlight Track Log ✈ ASQ5941 ✈ 17-May-2013 ✈ KORD - KAVP

Flight Track Log - Related Links

Times and Time Zones

All times are in EDT time to prevent confusion due to time zone crossing. See the ASQ5941 flight status page for this flight to view local times or setup timezone preferences in your user account.

Time Position Orientation Groundspeed Altitude Reporting Facility
EDT Latitude Longitude Course Direction KTS MPH feet Rate Location/Type
03:04PM 42.0000 -87.8333 80° East 182 209 3,300  Level Chicago TRACON
03:05PM 42.0167 -87.7500 75° East 245 282 4,500 1,920 Climbing Chicago TRACON
03:06PM 42.0428 -87.4462 83° East  Level FlightAware Approximate
03:06PM 42.0308 -87.5856 83° East 276 318 8,400  Level Chicago Center
03:07PM 42.0617 -87.2907 78° East  Level FlightAware Approximate
03:07PM 42.0467 -87.4806 78° East 284 327 10,200  Level Chicago Center
03:08PM 42.0856 -87.1362 77° East  Level FlightAware Approximate
03:09PM 42.1013 -86.9892 80° East  Level FlightAware Approximate
03:09PM 42.0644 -87.3667 78° East 304 350 12,200  Level Chicago Center
03:10PM 42.0836 -87.2483 78° East 319 367 13,700 1,020 Climbing Chicago Center
03:11PM 42.1036 -87.1183 78° East 345 397 14,400 960 Climbing Chicago Center
03:12PM 42.1156 -86.9792 83° East 371 427 15,700 1,320 Climbing Chicago Center
03:13PM 42.1211 -86.8047 87° East 385 443 17,200 1,140 Climbing Chicago Center
03:14PM 42.1267 -86.6556 87° East 387 445 18,100 900 Climbing Chicago Center
03:15PM 42.1319 -86.5075 87° East 393 452 19,100 960 Climbing Chicago Center
03:16PM 42.1361 -86.3550 88° East 405 466 20,100 960 Climbing Chicago Center
03:17PM 42.1414 -86.1989 87° East 415 478 21,100 900 Climbing Chicago Center
03:18PM 42.1428 -86.0378 89° East 426 490 22,000 1,020 Climbing Chicago Center
03:19PM 42.1419 -85.8561 90° East 431 496 23,300 1,140 Climbing Chicago Center
03:20PM 42.1406 -85.6919 91° East 433 498 24,400 1,080 Climbing Chicago Center
03:21PM 42.1386 -85.5350 91° East 433 498 25,600 1,140 Climbing Chicago Center
03:22PM 42.1375 -85.3753 90° East 431 496 26,800 1,200 Climbing Chicago Center
03:23PM 42.1347 -85.1842 91° East 429 494 28,200 1,140 Climbing Chicago Center
03:24PM 42.1342 -85.0358 90° East 431 496 29,200 1,080 Climbing Cleveland Center
03:25PM 42.1339 -84.8817 90° East 418 481 30,400 1,200 Climbing Cleveland Center
03:26PM 42.1292 -84.7217 92° East 418 481 31,600 1,140 Climbing Cleveland Center
03:27PM 42.1267 -84.5619 91° East 428 493 32,700 1,140 Climbing Cleveland Center
03:28PM 42.1339 -84.4111 86° East 423 487 33,900 1,140 Climbing Cleveland Center
03:29PM 42.1456 -84.2381 85° East 410 472 35,000 540 Climbing Cleveland Center
03:30PM 42.1486 -84.0758 88° East 417 480 35,000  Level Cleveland Center
03:31PM 42.1453 -83.9047 91° East 437 503 35,000  Level Cleveland Center
03:32PM 42.1419 -83.7253 91° East 450 518 35,000  Level Cleveland Center
03:33PM 42.1367 -83.5403 92° East 470 541 35,000  Level Cleveland Center
03:34PM 42.1328 -83.3581 92° East 483 556 35,000  Level Cleveland Center
03:35PM 42.1267 -83.1728 92° East 488 562 35,000  Level Cleveland Center
03:36PM 42.1244 -82.9908 91° East 488 562 35,000  Level Cleveland Center
03:37PM 42.1175 -82.8086 93° East 488 562 35,000  Level Cleveland Center
03:38PM 42.1128 -82.6264 92° East 488 562 35,000  Level Cleveland Center
03:39PM 42.1136 -82.4417 90° East 488 562 35,000  Level Cleveland Center
03:40PM 42.0978 -82.2594 97° East 488 562 35,000  Level Cleveland Center
03:41PM 42.0939 -82.0803 92° East 483 556 35,000  Level Cleveland Center
03:42PM 42.0900 -81.8925 92° East 483 556 35,000  Level Cleveland Center
03:43PM 42.0817 -81.7133 94° East 483 556 35,000  Level Cleveland Center
03:44PM 42.0747 -81.5314 93° East 483 556 35,000  Level Cleveland Center
03:45PM 42.0678 -81.3494 93° East 483 556 35,000  Level Cleveland Center
03:46PM 42.0586 -81.1647 94° East 483 556 35,000  Level Cleveland Center
03:47PM 42.0511 -80.9831 93° East 483 556 35,000  Level Cleveland Center
03:48PM 42.0411 -80.8208 95° East 477 549 35,000  Level Cleveland Center
03:49PM 42.0350 -80.6392 93° East 483 556 35,000  Level Cleveland Center
03:50PM 42.0267 -80.4603 94° East 477 549 35,000  Level Cleveland Center
03:51PM 42.0181 -80.2786 94° East 482 555 35,000  Level Cleveland Center
03:52PM 42.0069 -80.0942 95° East 482 555 35,000  Level Cleveland Center
03:53PM 41.9975 -79.8958 94° East 482 555 35,000  Level Cleveland Center
03:54PM 41.9881 -79.7089 94° East 482 555 35,000  Level Cleveland Center
03:55PM 41.9761 -79.5275 95° East 482 555 35,000  Level Cleveland Center
03:56PM 41.9636 -79.3433 95° East 487 560 35,000 -120 Level Cleveland Center
03:57PM 41.9533 -79.1592 94° East 492 566 34,800 -1,020 Descending Cleveland Center
03:58PM 41.9406 -78.9781 95° East 492 566 33,000 -1,800 Descending Cleveland Center
03:59PM 41.9314 -78.7942 94° East 492 566 31,200 -1,920 Descending Cleveland Center
04:00PM 41.9181 -78.6075 95° East 498 573 29,200 -2,040 Descending Cleveland Center
04:01PM 41.9042 -78.4153 95° East 503 579 27,200 -2,040 Descending Cleveland Center
04:02PM 41.8919 -78.2261 95° East 503 579 25,200 -1,920 Descending Cleveland Center
04:03PM 41.8775 -78.0369 96° East 508 585 23,400 -1,260 Descending Cleveland Center
04:04PM 41.8703 -77.9267 95° East 503 579 23,000 -240 Descending New York Center
04:05PM 41.8267 -77.7522 108° East 498 573 23,000  Level New York Center
04:06PM 41.7592 -77.5836 118° Southeast 494 568 23,000  Level New York Center
04:07PM 41.6978 -77.4164 116° Southeast 501 577 23,000  Level New York Center
04:08PM 41.6744 -77.2389 100° East 496 571 23,000 -480 Level New York Center
04:09PM 41.6547 -77.0592 98° East 485 558 22,100 -1,680 Descending New York Center
04:10PM 41.6369 -76.8856 98° East 473 544 19,700 -2,460 Descending New York Center
04:11PM 41.6197 -76.7286 98° East 453 521 17,400 -2,460 Descending New York Center
04:12PM 41.5989 -76.5603 99° East 420 483 14,800 -2,520 Descending New York Center
04:13PM 41.5864 -76.4342 98° East 397 457 12,400 -2,400 Descending New York Center
04:14PM 41.5700 -76.2942 99° East 391 450 10,100 -1,440 Descending New York Center
04:15PM 41.5553 -76.1628 98° East 343 395 9,600 -840 Descending New York Center
04:16PM 41.5031 -76.0700 127° Southeast 288 331 8,500 -1,440 Descending New York Center
04:17PM 41.4478 -76.0019 137° Southeast 303 349 6,800 -1,560 Descending New York Center
04:18PM 41.3844 -75.9250 138° Southeast 298 343 5,400 -1,200 Descending New York Center
04:19PM 41.3244 -75.8736 147° Southeast 281 323 4,400 -900 Descending New York Center
04:20PM 41.2625 -75.8606 171° South 253 291 3,700 -780 Descending New York Center